createdAt,value
2023-03-27T00:00:34.404Z,30.35
2023-03-27T00:03:20.760Z,30.39
2023-03-27T00:06:16.353Z,30.50
2023-03-27T00:09:03.845Z,30.49
2023-03-27T00:11:49.553Z,30.61
2023-03-27T00:14:36.368Z,30.75
2023-03-27T00:17:23.010Z,30.65
2023-03-27T00:20:09.343Z,30.68
2023-03-27T00:22:59.563Z,30.78
2023-03-27T00:25:50.895Z,30.59
2023-03-27T00:28:36.678Z,30.66
2023-03-27T00:31:22.476Z,30.57
2023-03-27T00:34:08.740Z,30.78
2023-03-27T00:36:54.546Z,30.55
2023-03-27T00:39:41.943Z,30.73
2023-03-27T00:42:28.277Z,30.67
2023-03-27T00:45:22.776Z,31.14
2023-03-27T00:48:09.330Z,30.86
2023-03-27T00:50:57.411Z,30.73
2023-03-27T00:53:44.582Z,30.84
2023-03-27T00:56:30.802Z,30.83
2023-03-27T00:59:19.908Z,30.82
2023-03-27T01:02:06.909Z,30.89
2023-03-27T01:04:53.476Z,30.85
2023-03-27T01:07:40.760Z,31.05
2023-03-27T01:11:27.706Z,31.62
2023-03-27T01:14:16.425Z,31.73
2023-03-27T01:17:14.837Z,31.41
2023-03-27T01:20:34.856Z,32.46
2023-03-27T01:23:59.954Z,31.37
2023-03-27T01:27:16.370Z,31.64
2023-03-27T01:30:23.123Z,31.83
2023-03-27T01:33:40.409Z,32.49
2023-03-27T01:36:27.465Z,31.63
2023-03-27T01:39:37.831Z,32.19
2023-03-27T01:42:30.961Z,31.74
2023-03-27T01:45:23.880Z,31.84
2023-03-27T01:48:19.852Z,32.12
2023-03-27T01:51:22.313Z,32.59
2023-03-27T01:54:17.281Z,32.00
2023-03-27T01:57:16.527Z,32.28
2023-03-27T02:00:17.296Z,32.18
2023-03-27T02:03:41.697Z,33.11
2023-03-27T02:06:31.844Z,32.14
2023-03-27T02:09:17.777Z,32.22
2023-03-27T02:12:07.664Z,33.36
2023-03-27T02:14:55.574Z,32.49
2023-03-27T02:17:48.379Z,32.34
2023-03-27T02:20:36.974Z,32.70
2023-03-27T02:23:24.326Z,32.56
2023-03-27T02:26:12.010Z,32.67
2023-03-27T02:28:57.717Z,32.55
2023-03-27T02:31:53.980Z,32.73
2023-03-27T02:34:58.926Z,32.57
2023-03-27T02:38:01.299Z,32.74
2023-03-27T02:41:25.841Z,33.22
2023-03-27T02:44:46.585Z,33.61
2023-03-27T02:47:36.387Z,32.71
2023-03-27T02:50:27.778Z,33.02
2023-03-27T02:53:22.979Z,32.85
2023-03-27T02:56:09.381Z,32.85
2023-03-27T02:59:04.036Z,33.27
2023-03-27T03:01:55.800Z,32.92
2023-03-27T03:04:57.178Z,33.71
2023-03-27T03:07:48.885Z,32.94
2023-03-27T03:10:35.276Z,33.15
2023-03-27T03:13:20.906Z,33.21
2023-03-27T03:16:07.661Z,33.20
2023-03-27T03:18:53.349Z,33.20
2023-03-27T03:21:39.866Z,33.30
2023-03-27T03:24:29.795Z,33.15
2023-03-27T03:27:21.012Z,33.20
2023-03-27T03:30:22.131Z,33.25
2023-03-27T03:33:18.024Z,33.24
2023-03-27T03:36:04.646Z,33.43
2023-03-27T03:38:52.824Z,33.39
2023-03-27T03:41:38.606Z,33.49
2023-03-27T03:44:24.292Z,33.34
2023-03-27T03:47:10.116Z,33.22
2023-03-27T03:49:55.873Z,33.48
2023-03-27T03:52:42.538Z,33.56
2023-03-27T03:55:28.460Z,33.33
2023-03-27T03:58:14.559Z,33.61
2023-03-27T04:01:00.224Z,33.63
2023-03-27T04:03:58.045Z,33.55
2023-03-27T04:06:46.154Z,33.46
2023-03-27T04:09:32.760Z,33.56
2023-03-27T04:12:33.624Z,33.70
2023-03-27T04:15:20.716Z,33.69
2023-03-27T04:18:32.916Z,33.72
2023-03-27T04:21:22.374Z,33.88
2023-03-27T04:24:08.397Z,33.91
2023-03-27T04:27:04.805Z,34.01
2023-03-27T04:29:58.710Z,34.18
2023-03-27T04:32:52.264Z,34.02
2023-03-27T04:36:06.115Z,34.08
2023-03-27T04:39:16.700Z,34.11
2023-03-27T04:42:03.047Z,34.22
2023-03-27T04:44:52.440Z,34.36
2023-03-27T04:47:38.727Z,34.25
2023-03-27T04:50:25.617Z,34.24
2023-03-27T04:53:11.456Z,34.27
2023-03-27T04:56:03.608Z,34.24
2023-03-27T04:58:53.035Z,34.29
2023-03-27T05:01:38.999Z,34.27
2023-03-27T05:04:32.154Z,34.20
2023-03-27T05:07:34.373Z,34.37
2023-03-27T05:10:23.039Z,34.54
2023-03-27T05:13:10.288Z,34.24
2023-03-27T05:15:55.998Z,34.24
2023-03-27T05:18:45.255Z,34.52
2023-03-27T05:21:31.100Z,34.48
2023-03-27T05:24:16.906Z,34.43
2023-03-27T05:27:04.736Z,34.40
2023-03-27T05:29:51.370Z,34.44
2023-03-27T05:32:38.148Z,34.33
2023-03-27T05:35:34.737Z,34.41
2023-03-27T05:38:22.822Z,34.51
2023-03-27T05:41:28.882Z,34.26
2023-03-27T05:44:14.811Z,34.64
2023-03-27T05:47:03.679Z,34.84
2023-03-27T05:49:50.867Z,34.73
2023-03-27T05:52:36.600Z,34.62
2023-03-27T05:55:22.820Z,34.64
2023-03-27T05:58:11.888Z,34.82
2023-03-27T06:00:58.635Z,34.75
2023-03-27T06:03:56.321Z,35.31
2023-03-27T06:06:55.576Z,35.18
2023-03-27T06:09:41.466Z,35.20
2023-03-27T06:13:06.657Z,35.19
2023-03-27T06:16:20.956Z,35.39
2023-03-27T06:19:36.837Z,35.37
2023-03-27T06:22:23.606Z,35.02
2023-03-27T06:25:10.464Z,35.40
2023-03-27T06:27:56.789Z,35.66
2023-03-27T06:30:43.000Z,35.41
2023-03-27T06:33:52.155Z,35.56
2023-03-27T06:37:05.637Z,35.38
2023-03-27T06:39:58.138Z,37.21
2023-03-27T06:42:54.276Z,35.31
2023-03-27T06:45:50.934Z,35.53
2023-03-27T06:48:55.613Z,35.65
2023-03-27T06:51:48.932Z,37.95
2023-03-27T06:54:35.704Z,35.71
2023-03-27T06:57:21.879Z,35.82
2023-03-27T07:00:17.040Z,35.64
2023-03-27T07:03:26.243Z,35.73
2023-03-27T07:06:11.949Z,35.64
2023-03-27T07:09:23.885Z,35.52
2023-03-27T07:12:20.830Z,35.57
2023-03-27T07:15:08.279Z,35.84
2023-03-27T07:18:00.521Z,36.52
2023-03-27T07:20:48.113Z,35.72
2023-03-27T07:23:36.787Z,36.16
2023-03-27T07:26:27.082Z,36.05
2023-03-27T07:29:29.550Z,36.79
2023-03-27T07:32:25.801Z,37.18
2023-03-27T07:35:22.048Z,37.03
2023-03-27T07:38:26.842Z,37.10
2023-03-27T07:41:38.853Z,37.38
2023-03-27T07:44:39.422Z,38.42
2023-03-27T07:47:28.569Z,37.97
2023-03-27T07:50:19.180Z,37.83
2023-03-27T07:53:08.582Z,38.66
2023-03-27T07:56:00.925Z,38.40
2023-03-27T07:58:47.364Z,38.34
2023-03-27T08:01:38.689Z,39.13
2023-03-27T08:04:25.470Z,39.38
2023-03-27T08:07:25.921Z,40.70
2023-03-27T08:10:20.825Z,39.73
2023-03-27T08:13:18.495Z,39.86
2023-03-27T08:16:05.639Z,40.80
2023-03-27T08:18:51.755Z,40.01
2023-03-27T08:21:37.446Z,40.31
2023-03-27T08:24:23.175Z,41.10
2023-03-27T08:27:29.345Z,41.63
2023-03-27T08:30:17.028Z,41.11
2023-03-27T08:33:03.864Z,41.52
2023-03-27T08:35:51.287Z,42.74
2023-03-27T08:38:39.603Z,42.54
2023-03-27T08:41:43.353Z,42.62
2023-03-27T08:44:35.560Z,42.14
2023-03-27T08:47:44.503Z,42.89
2023-03-27T08:50:41.581Z,42.76
2023-03-27T08:53:52.071Z,43.88
2023-03-27T08:56:43.022Z,42.74
2023-03-27T08:59:31.480Z,43.53
2023-03-27T09:02:40.793Z,43.22
2023-03-27T09:05:42.596Z,43.98
2023-03-27T09:08:34.899Z,42.94
2023-03-27T09:11:54.756Z,44.43
2023-03-27T09:14:56.786Z,44.76
2023-03-27T09:18:02.187Z,44.02
2023-03-27T09:21:04.824Z,44.42
2023-03-27T09:23:54.170Z,44.15
2023-03-27T09:27:32.652Z,44.47
2023-03-27T09:30:37.599Z,44.02
2023-03-27T09:33:33.598Z,43.95
2023-03-27T09:36:19.465Z,44.57
2023-03-27T09:39:08.186Z,44.41
2023-03-27T09:42:20.295Z,45.71
2023-03-27T09:45:08.106Z,44.28
2023-03-27T09:48:36.241Z,44.45
2023-03-27T09:51:53.920Z,46.24
2023-03-27T09:54:53.954Z,44.72
2023-03-27T09:57:49.174Z,44.68
2023-03-27T10:00:36.530Z,45.43
2023-03-27T10:03:24.852Z,45.22
2023-03-27T10:06:44.643Z,46.11
2023-03-27T10:09:41.077Z,45.29
2023-03-27T10:12:30.733Z,45.29
2023-03-27T10:15:44.783Z,48.29
2023-03-27T10:18:48.148Z,45.64
2023-03-27T10:21:42.103Z,45.69
2023-03-27T10:24:36.005Z,45.33
2023-03-27T10:27:35.949Z,45.32
2023-03-27T10:30:41.007Z,45.60
2023-03-27T10:33:47.436Z,45.53
2023-03-27T10:37:05.043Z,45.90
2023-03-27T10:39:53.056Z,46.29
2023-03-27T10:42:51.007Z,45.81
2023-03-27T10:45:49.907Z,46.22
2023-03-27T10:48:48.098Z,45.84
2023-03-27T10:51:53.567Z,45.95
2023-03-27T10:54:59.528Z,47.72
2023-03-27T10:57:52.585Z,45.76
2023-03-27T11:00:46.734Z,45.63
2023-03-27T11:03:40.071Z,45.52
2023-03-27T11:06:32.420Z,45.46
2023-03-27T11:09:24.582Z,46.00
2023-03-27T11:12:39.121Z,45.44
2023-03-27T11:15:29.376Z,45.96
2023-03-27T11:18:28.947Z,45.37
2023-03-27T11:21:43.971Z,46.47
2023-03-27T11:24:35.113Z,46.32
2023-03-27T11:27:38.510Z,45.16
2023-03-27T11:30:24.826Z,45.46
2023-03-27T11:33:42.088Z,45.41
2023-03-27T11:36:39.828Z,45.11
2023-03-27T11:39:55.340Z,44.67
2023-03-27T11:42:43.845Z,44.66
2023-03-27T11:45:54.107Z,45.00
2023-03-27T11:48:58.391Z,44.91
2023-03-27T11:51:59.642Z,44.84
2023-03-27T11:55:51.746Z,45.37
2023-03-27T11:59:08.156Z,44.37
2023-03-27T12:01:57.840Z,44.33
2023-03-27T12:04:50.503Z,44.02
2023-03-27T12:07:59.742Z,43.88
2023-03-27T12:10:49.124Z,44.20
2023-03-27T12:14:02.643Z,44.55
2023-03-27T12:17:05.164Z,45.24
2023-03-27T12:20:19.145Z,45.26
2023-03-27T12:23:37.796Z,43.78
2023-03-27T12:26:57.747Z,42.88
2023-03-27T12:30:18.168Z,42.35
2023-03-27T12:33:32.392Z,40.20
2023-03-27T12:36:20.894Z,40.52
2023-03-27T12:39:20.180Z,41.08
2023-03-27T12:42:22.827Z,40.98
2023-03-27T12:45:18.451Z,41.18
2023-03-27T12:48:11.827Z,40.13
2023-03-27T12:51:12.929Z,39.53
2023-03-27T12:53:59.513Z,40.06
2023-03-27T12:57:25.082Z,39.08
2023-03-27T13:00:28.067Z,39.06
2023-03-27T13:03:53.564Z,37.65
2023-03-27T13:07:06.321Z,37.07
2023-03-27T13:10:32.174Z,38.16
2023-03-27T13:13:32.645Z,37.91
2023-03-27T13:16:39.150Z,37.64
2023-03-27T13:19:48.212Z,36.31
2023-03-27T13:23:06.627Z,38.06
2023-03-27T13:26:10.576Z,36.84
2023-03-27T13:29:01.590Z,36.94
2023-03-27T13:31:49.608Z,36.29
2023-03-27T13:35:01.812Z,35.29
2023-03-27T13:37:51.916Z,35.72
2023-03-27T13:40:46.106Z,35.43
2023-03-27T13:43:36.084Z,34.63
2023-03-27T13:46:30.998Z,33.80
2023-03-27T13:49:46.971Z,32.75
2023-03-27T13:52:48.324Z,32.78
2023-03-27T13:56:20.288Z,33.02
2023-03-27T14:00:37.617Z,34.24
2023-03-27T14:03:54.740Z,34.13
2023-03-27T14:06:58.718Z,33.08
2023-03-27T14:10:15.787Z,32.27
2023-03-27T14:13:07.623Z,32.35
2023-03-27T14:16:28.277Z,31.94
2023-03-27T14:20:00.571Z,31.37
2023-03-27T14:23:04.808Z,31.03
2023-03-27T14:26:20.001Z,30.75
2023-03-27T14:29:07.098Z,30.94
2023-03-27T14:32:06.100Z,31.22
2023-03-27T14:34:54.791Z,31.89
2023-03-27T14:38:07.896Z,32.55
2023-03-27T14:41:01.551Z,33.20
2023-03-27T14:44:06.179Z,33.83
2023-03-27T14:47:04.953Z,34.20
2023-03-27T14:49:56.759Z,34.63
2023-03-27T14:52:57.822Z,34.96
2023-03-27T14:55:48.611Z,35.22
2023-03-27T14:58:54.872Z,35.88
2023-03-27T15:01:42.088Z,35.88
2023-03-27T15:04:30.316Z,36.06
2023-03-27T15:07:21.084Z,36.34
2023-03-27T15:10:31.737Z,36.59
2023-03-27T15:13:37.889Z,36.84
2023-03-27T15:16:30.033Z,37.26
2023-03-27T15:19:21.855Z,37.14
2023-03-27T15:22:33.749Z,37.20
2023-03-27T15:25:46.296Z,37.58
2023-03-27T15:28:41.869Z,37.63
2023-03-27T15:31:30.210Z,37.80
2023-03-27T15:34:35.222Z,37.71
2023-03-27T15:37:25.859Z,37.61
2023-03-27T15:40:15.623Z,38.51
2023-03-27T15:43:05.521Z,38.54
2023-03-27T15:45:57.136Z,38.59
2023-03-27T15:48:48.352Z,39.17
2023-03-27T15:51:34.227Z,38.64
2023-03-27T15:54:29.261Z,39.04
2023-03-27T15:57:16.152Z,39.20
2023-03-27T16:00:08.973Z,40.36
2023-03-27T16:03:23.072Z,41.57
2023-03-27T16:06:10.488Z,40.11
2023-03-27T16:08:57.198Z,40.40
2023-03-27T16:11:48.676Z,40.87
2023-03-27T16:14:44.161Z,42.55
2023-03-27T16:17:44.779Z,41.99
2023-03-27T16:20:34.282Z,41.11
2023-03-27T16:23:20.241Z,41.31
2023-03-27T16:26:07.323Z,41.42
2023-03-27T16:29:00.754Z,42.32
2023-03-27T16:31:46.529Z,41.80
2023-03-27T16:34:32.113Z,41.97
2023-03-27T16:37:23.681Z,41.70
2023-03-27T16:40:11.625Z,42.08
2023-03-27T16:42:57.733Z,41.90
2023-03-27T16:45:44.947Z,42.04
2023-03-27T16:48:31.232Z,41.97
2023-03-27T16:51:18.068Z,41.93
2023-03-27T16:54:03.985Z,42.18
2023-03-27T16:56:52.265Z,42.70
2023-03-27T16:59:38.358Z,42.76
2023-03-27T17:02:25.591Z,42.81
2023-03-27T17:05:11.994Z,42.92
2023-03-27T17:07:57.843Z,42.72
2023-03-27T17:10:45.002Z,42.84
2023-03-27T17:13:32.850Z,43.26
2023-03-27T17:16:19.838Z,42.52
2023-03-27T17:19:06.337Z,42.86
2023-03-27T17:21:54.183Z,43.02
2023-03-27T17:24:55.205Z,43.25
2023-03-27T17:27:41.568Z,43.44
2023-03-27T17:30:37.302Z,43.33
2023-03-27T17:33:28.633Z,42.69
2023-03-27T17:36:21.656Z,42.58
2023-03-27T17:39:13.710Z,42.42
2023-03-27T17:41:59.459Z,42.66
2023-03-27T17:44:46.321Z,42.85
2023-03-27T17:47:33.273Z,42.93
2023-03-27T17:50:19.420Z,43.16
2023-03-27T17:53:05.362Z,42.99
2023-03-27T17:55:52.076Z,42.53
2023-03-27T17:58:39.157Z,42.78
2023-03-27T18:01:26.618Z,42.94
2023-03-27T18:04:12.741Z,42.48
2023-03-27T18:06:58.861Z,42.89
2023-03-27T18:09:44.852Z,42.66
2023-03-27T18:12:33.752Z,44.15
2023-03-27T18:15:19.311Z,43.52
2023-03-27T18:18:05.477Z,43.49
2023-03-27T18:20:52.348Z,43.38
2023-03-27T18:23:45.905Z,43.25
2023-03-27T18:26:33.299Z,43.61
2023-03-27T18:29:21.268Z,43.85
2023-03-27T18:32:07.329Z,43.70
2023-03-27T18:34:53.185Z,43.36
2023-03-27T18:37:39.478Z,43.90
2023-03-27T18:40:25.827Z,43.90
2023-03-27T18:43:13.749Z,43.48
2023-03-27T18:46:04.353Z,43.72
2023-03-27T18:48:50.921Z,43.69
2023-03-27T18:51:36.927Z,44.12
2023-03-27T18:54:23.212Z,43.78
2023-03-27T18:57:09.319Z,43.68
2023-03-27T18:59:55.339Z,43.80
2023-03-27T19:02:41.199Z,44.47
2023-03-27T19:05:51.360Z,44.37
2023-03-27T19:08:50.112Z,44.45
2023-03-27T19:12:02.132Z,45.96
2023-03-27T19:15:19.322Z,44.17
2023-03-27T19:18:28.405Z,44.70
2023-03-27T19:21:37.140Z,44.78
2023-03-27T19:24:35.496Z,44.80
2023-03-27T19:27:23.241Z,44.49
2023-03-27T19:30:12.442Z,44.93
2023-03-27T19:32:58.419Z,44.70
2023-03-27T19:35:44.706Z,45.07
2023-03-27T19:38:32.187Z,45.26
2023-03-27T19:41:18.189Z,45.38
2023-03-27T19:44:04.334Z,44.81
2023-03-27T19:46:50.529Z,45.36
2023-03-27T19:49:36.953Z,44.67
2023-03-27T19:52:42.716Z,44.48
2023-03-27T19:55:28.538Z,45.69
2023-03-27T19:58:14.535Z,45.65
2023-03-27T20:01:00.600Z,45.17
2023-03-27T20:03:46.569Z,45.88
2023-03-27T20:06:34.055Z,45.52
2023-03-27T20:09:20.399Z,45.94
2023-03-27T20:12:06.805Z,45.66
2023-03-27T20:15:03.573Z,45.59
2023-03-27T20:18:00.301Z,45.12
2023-03-27T20:20:47.839Z,45.55
2023-03-27T20:23:33.651Z,46.04
2023-03-27T20:26:24.208Z,46.57
2023-03-27T20:29:20.471Z,46.08
2023-03-27T20:32:08.280Z,46.53
2023-03-27T20:34:54.786Z,46.39
2023-03-27T20:37:41.910Z,46.32
2023-03-27T20:40:53.272Z,47.38
2023-03-27T20:43:49.990Z,46.74
2023-03-27T20:46:36.206Z,46.81
2023-03-27T20:49:40.190Z,46.63
2023-03-27T20:52:28.480Z,46.86
2023-03-27T20:55:22.813Z,47.67
2023-03-27T20:58:18.285Z,46.90
2023-03-27T21:01:06.947Z,47.22
2023-03-27T21:03:54.087Z,47.33
2023-03-27T21:06:40.815Z,47.08
2023-03-27T21:09:27.577Z,46.92
2023-03-27T21:12:13.673Z,47.26
2023-03-27T21:14:59.664Z,46.92
2023-03-27T21:17:45.503Z,47.02
2023-03-27T21:20:32.732Z,46.38
2023-03-27T21:23:20.824Z,46.66
2023-03-27T21:26:07.029Z,46.57
2023-03-27T21:28:52.925Z,46.73
2023-03-27T21:31:39.683Z,47.04
2023-03-27T21:34:25.870Z,46.94
2023-03-27T21:37:12.037Z,46.51
2023-03-27T21:39:57.582Z,46.94
2023-03-27T21:42:43.492Z,46.86
2023-03-27T21:45:29.211Z,46.60
2023-03-27T21:48:15.142Z,46.26
2023-03-27T21:51:02.431Z,46.31
2023-03-27T21:53:48.390Z,46.30
2023-03-27T21:56:34.174Z,46.75
2023-03-27T21:59:19.991Z,47.00
2023-03-27T22:02:05.746Z,46.48
2023-03-27T22:04:51.702Z,46.36
2023-03-27T22:07:37.389Z,46.40
2023-03-27T22:10:23.155Z,46.33
2023-03-27T22:13:09.172Z,46.14
2023-03-27T22:15:54.959Z,46.33
2023-03-27T22:18:41.429Z,45.90
2023-03-27T22:21:29.427Z,45.86
2023-03-27T22:24:15.504Z,46.13
2023-03-27T22:27:01.134Z,45.79
2023-03-27T22:29:46.856Z,45.80
2023-03-27T22:32:32.757Z,45.70
2023-03-27T22:35:18.822Z,45.37
2023-03-27T22:38:04.785Z,45.37
2023-03-27T22:40:50.371Z,45.37
2023-03-27T22:43:36.216Z,45.21
2023-03-27T22:46:23.407Z,45.31
2023-03-27T22:49:09.375Z,44.93
2023-03-27T22:51:55.308Z,45.17
2023-03-27T22:54:41.690Z,45.23
2023-03-27T22:57:27.657Z,44.87
2023-03-27T23:00:13.905Z,44.87
2023-03-27T23:02:59.915Z,44.75
2023-03-27T23:05:50.943Z,45.10
2023-03-27T23:08:36.989Z,45.31
2023-03-27T23:11:23.138Z,45.00
2023-03-27T23:14:08.799Z,44.43
2023-03-27T23:16:54.673Z,44.94
2023-03-27T23:19:40.990Z,44.63
2023-03-27T23:22:26.838Z,44.96
2023-03-27T23:25:13.814Z,44.71
2023-03-27T23:27:59.747Z,44.25
2023-03-27T23:30:56.853Z,44.36
2023-03-27T23:33:45.215Z,44.23
2023-03-27T23:36:31.221Z,44.52
2023-03-27T23:39:16.901Z,44.18
2023-03-27T23:42:02.725Z,44.28
2023-03-27T23:44:48.522Z,44.57
2023-03-27T23:47:34.379Z,44.15
2023-03-27T23:50:20.022Z,43.58
2023-03-27T23:53:05.888Z,44.03
2023-03-27T23:55:52.688Z,43.78
2023-03-27T23:58:38.873Z,43.29
